sensor_id;sensor_type;location;lat;lon;timestamp;temperature;humidity
2955;DHT22;1487;51.470;6.938;2023-09-12T00:00:07;20.10;99.90
2955;DHT22;1487;51.470;6.938;2023-09-12T00:02:35;20.10;99.90
2955;DHT22;1487;51.470;6.938;2023-09-12T00:05:02;20.10;99.90
2955;DHT22;1487;51.470;6.938;2023-09-12T00:07:29;20.10;99.90
2955;DHT22;1487;51.470;6.938;2023-09-12T00:09:56;20.10;99.90
2955;DHT22;1487;51.470;6.938;2023-09-12T00:12:24;20.10;99.90
2955;DHT22;1487;51.470;6.938;2023-09-12T00:14:51;20.10;99.90
2955;DHT22;1487;51.470;6.938;2023-09-12T00:17:19;20.00;99.90
2955;DHT22;1487;51.470;6.938;2023-09-12T00:19:46;20.00;99.90
2955;DHT22;1487;51.470;6.938;2023-09-12T00:22:13;20.00;99.90
2955;DHT22;1487;51.470;6.938;2023-09-12T00:24:39;20.00;99.90
2955;DHT22;1487;51.470;6.938;2023-09-12T00:27:06;20.00;99.90
2955;DHT22;1487;51.470;6.938;2023-09-12T00:29:33;20.00;99.90
2955;DHT22;1487;51.470;6.938;2023-09-12T00:32:00;20.00;99.90
2955;DHT22;1487;51.470;6.938;2023-09-12T00:34:28;20.10;99.90
2955;DHT22;1487;51.470;6.938;2023-09-12T00:36:55;20.20;99.90
2955;DHT22;1487;51.470;6.938;2023-09-12T00:39:22;20.20;99.90
2955;DHT22;1487;51.470;6.938;2023-09-12T00:41:48;20.30;99.90
2955;DHT22;1487;51.470;6.938;2023-09-12T00:44:15;20.40;99.90
2955;DHT22;1487;51.470;6.938;2023-09-12T00:46:43;20.40;99.90
2955;DHT22;1487;51.470;6.938;2023-09-12T00:49:12;20.40;99.90
2955;DHT22;1487;51.470;6.938;2023-09-12T00:51:42;20.30;99.90
2955;DHT22;1487;51.470;6.938;2023-09-12T00:54:09;20.30;99.90
2955;DHT22;1487;51.470;6.938;2023-09-12T00:56:36;20.40;99.90
2955;DHT22;1487;51.470;6.938;2023-09-12T00:59:04;20.40;99.90
2955;DHT22;1487;51.470;6.938;2023-09-12T01:01:32;20.40;99.90
2955;DHT22;1487;51.470;6.938;2023-09-12T01:03:59;20.40;99.90
2955;DHT22;1487;51.470;6.938;2023-09-12T01:06:28;20.30;99.90
2955;DHT22;1487;51.470;6.938;2023-09-12T01:08:57;20.40;99.90
2955;DHT22;1487;51.470;6.938;2023-09-12T01:11:24;20.50;99.90
2955;DHT22;1487;51.470;6.938;2023-09-12T01:13:51;20.60;99.90
2955;DHT22;1487;51.470;6.938;2023-09-12T01:16:17;20.60;99.90
2955;DHT22;1487;51.470;6.938;2023-09-12T01:18:44;20.60;99.90
2955;DHT22;1487;51.470;6.938;2023-09-12T01:21:55;20.60;99.90
2955;DHT22;1487;51.470;6.938;2023-09-12T01:27:33;20.50;99.90
2955;DHT22;1487;51.470;6.938;2023-09-12T01:30:04;20.50;99.90
2955;DHT22;1487;51.470;6.938;2023-09-12T01:32:32;20.40;99.90
2955;DHT22;1487;51.470;6.938;2023-09-12T01:34:59;20.40;99.90
2955;DHT22;1487;51.470;6.938;2023-09-12T01:37:26;20.40;99.90
2955;DHT22;1487;51.470;6.938;2023-09-12T01:39:52;20.40;99.90
2955;DHT22;1487;51.470;6.938;2023-09-12T01:42:21;20.40;99.90
2955;DHT22;1487;51.470;6.938;2023-09-12T01:44:50;20.40;99.90
2955;DHT22;1487;51.470;6.938;2023-09-12T01:47:21;20.40;99.90
2955;DHT22;1487;51.470;6.938;2023-09-12T01:49:51;20.40;99.90
2955;DHT22;1487;51.470;6.938;2023-09-12T01:52:19;20.30;99.90
2955;DHT22;1487;51.470;6.938;2023-09-12T01:54:47;20.30;99.90
2955;DHT22;1487;51.470;6.938;2023-09-12T01:57:16;20.30;99.90
2955;DHT22;1487;51.470;6.938;2023-09-12T01:59:46;20.30;99.90
2955;DHT22;1487;51.470;6.938;2023-09-12T02:02:14;20.20;99.90
2955;DHT22;1487;51.470;6.938;2023-09-12T02:04:41;20.20;99.90
2955;DHT22;1487;51.470;6.938;2023-09-12T02:07:08;20.10;99.90
2955;DHT22;1487;51.470;6.938;2023-09-12T02:09:35;20.10;99.90
2955;DHT22;1487;51.470;6.938;2023-09-12T02:12:01;20.10;99.90
2955;DHT22;1487;51.470;6.938;2023-09-12T02:14:28;20.10;99.90
2955;DHT22;1487;51.470;6.938;2023-09-12T02:16:55;20.00;99.90
2955;DHT22;1487;51.470;6.938;2023-09-12T02:19:23;20.00;99.90
2955;DHT22;1487;51.470;6.938;2023-09-12T02:21:50;20.00;99.90
2955;DHT22;1487;51.470;6.938;2023-09-12T02:24:17;20.00;99.90
2955;DHT22;1487;51.470;6.938;2023-09-12T02:26:46;20.00;99.90
2955;DHT22;1487;51.470;6.938;2023-09-12T02:29:13;20.00;99.90
2955;DHT22;1487;51.470;6.938;2023-09-12T02:31:40;20.10;99.90
2955;DHT22;1487;51.470;6.938;2023-09-12T02:34:07;20.10;99.90
2955;DHT22;1487;51.470;6.938;2023-09-12T02:36:38;20.20;99.90
2955;DHT22;1487;51.470;6.938;2023-09-12T02:39:05;20.20;99.90
2955;DHT22;1487;51.470;6.938;2023-09-12T02:41:31;20.30;99.90
2955;DHT22;1487;51.470;6.938;2023-09-12T02:43:58;20.30;99.90
2955;DHT22;1487;51.470;6.938;2023-09-12T02:46:25;20.30;99.90
2955;DHT22;1487;51.470;6.938;2023-09-12T02:48:52;20.30;99.90
2955;DHT22;1487;51.470;6.938;2023-09-12T02:51:19;20.30;99.90
2955;DHT22;1487;51.470;6.938;2023-09-12T02:53:47;20.30;99.90
2955;DHT22;1487;51.470;6.938;2023-09-12T02:56:14;20.30;99.90
2955;DHT22;1487;51.470;6.938;2023-09-12T02:58:40;20.30;99.90
2955;DHT22;1487;51.470;6.938;2023-09-12T03:01:07;20.40;99.90
2955;DHT22;1487;51.470;6.938;2023-09-12T03:03:34;20.40;99.90
2955;DHT22;1487;51.470;6.938;2023-09-12T03:06:01;20.30;99.90
2955;DHT22;1487;51.470;6.938;2023-09-12T03:08:29;20.30;99.90
2955;DHT22;1487;51.470;6.938;2023-09-12T03:10:58;20.20;99.90
2955;DHT22;1487;51.470;6.938;2023-09-12T03:13:26;20.10;99.90
2955;DHT22;1487;51.470;6.938;2023-09-12T03:15:53;20.00;99.90
2955;DHT22;1487;51.470;6.938;2023-09-12T03:18:23;20.00;99.90
2955;DHT22;1487;51.470;6.938;2023-09-12T03:21:00;20.00;99.90
2955;DHT22;1487;51.470;6.938;2023-09-12T03:23:27;19.90;99.90
2955;DHT22;1487;51.470;6.938;2023-09-12T03:25:54;19.90;99.90
2955;DHT22;1487;51.470;6.938;2023-09-12T03:28:23;19.90;99.90
2955;DHT22;1487;51.470;6.938;2023-09-12T03:30:49;19.80;99.90
2955;DHT22;1487;51.470;6.938;2023-09-12T03:33:16;19.70;99.90
2955;DHT22;1487;51.470;6.938;2023-09-12T03:35:43;19.70;99.90
2955;DHT22;1487;51.470;6.938;2023-09-12T03:38:10;19.60;99.90
2955;DHT22;1487;51.470;6.938;2023-09-12T03:40:37;19.60;99.90
2955;DHT22;1487;51.470;6.938;2023-09-12T03:43:04;19.60;99.90
2955;DHT22;1487;51.470;6.938;2023-09-12T03:45:32;19.50;99.90
2955;DHT22;1487;51.470;6.938;2023-09-12T03:47:59;19.50;99.90
2955;DHT22;1487;51.470;6.938;2023-09-12T03:50:25;19.50;99.90
2955;DHT22;1487;51.470;6.938;2023-09-12T03:52:52;19.40;99.90
2955;DHT22;1487;51.470;6.938;2023-09-12T03:55:19;19.40;99.90
2955;DHT22;1487;51.470;6.938;2023-09-12T03:57:46;19.40;99.90
2955;DHT22;1487;51.470;6.938;2023-09-12T04:00:14;19.40;99.90
2955;DHT22;1487;51.470;6.938;2023-09-12T04:02:42;19.40;99.90
2955;DHT22;1487;51.470;6.938;2023-09-12T04:05:09;19.30;99.90
2955;DHT22;1487;51.470;6.938;2023-09-12T04:07:36;19.30;99.90
2955;DHT22;1487;51.470;6.938;2023-09-12T04:10:03;19.30;99.90
2955;DHT22;1487;51.470;6.938;2023-09-12T04:12:30;19.30;99.90
2955;DHT22;1487;51.470;6.938;2023-09-12T04:14:57;19.30;99.90
2955;DHT22;1487;51.470;6.938;2023-09-12T04:17:23;19.30;99.90
2955;DHT22;1487;51.470;6.938;2023-09-12T04:19:52;19.30;99.90
2955;DHT22;1487;51.470;6.938;2023-09-12T04:22:18;19.20;99.90
2955;DHT22;1487;51.470;6.938;2023-09-12T04:24:45;19.20;99.90
2955;DHT22;1487;51.470;6.938;2023-09-12T04:27:12;19.20;99.90
2955;DHT22;1487;51.470;6.938;2023-09-12T04:29:39;19.20;99.90
2955;DHT22;1487;51.470;6.938;2023-09-12T04:32:06;19.10;99.90
2955;DHT22;1487;51.470;6.938;2023-09-12T04:34:33;19.10;99.90
2955;DHT22;1487;51.470;6.938;2023-09-12T04:37:02;19.10;99.90
2955;DHT22;1487;51.470;6.938;2023-09-12T04:39:31;19.10;99.90
2955;DHT22;1487;51.470;6.938;2023-09-12T04:41:57;19.10;99.90
2955;DHT22;1487;51.470;6.938;2023-09-12T04:44:24;19.10;99.90
2955;DHT22;1487;51.470;6.938;2023-09-12T04:46:51;19.10;99.90
2955;DHT22;1487;51.470;6.938;2023-09-12T04:49:18;19.20;99.90
2955;DHT22;1487;51.470;6.938;2023-09-12T04:51:45;19.20;99.90
2955;DHT22;1487;51.470;6.938;2023-09-12T04:54:13;19.20;99.90
2955;DHT22;1487;51.470;6.938;2023-09-12T04:56:40;19.20;99.90
2955;DHT22;1487;51.470;6.938;2023-09-12T04:59:06;19.20;99.90
2955;DHT22;1487;51.470;6.938;2023-09-12T05:01:33;19.30;99.90
2955;DHT22;1487;51.470;6.938;2023-09-12T05:04:00;19.40;99.90
2955;DHT22;1487;51.470;6.938;2023-09-12T05:06:28;19.50;99.90
2955;DHT22;1487;51.470;6.938;2023-09-12T05:08:55;19.60;99.90
2955;DHT22;1487;51.470;6.938;2023-09-12T05:11:24;19.70;99.90
2955;DHT22;1487;51.470;6.938;2023-09-12T05:13:51;19.70;99.90
2955;DHT22;1487;51.470;6.938;2023-09-12T05:16:18;19.80;99.90
2955;DHT22;1487;51.470;6.938;2023-09-12T05:18:45;19.90;99.90
2955;DHT22;1487;51.470;6.938;2023-09-12T05:21:14;19.90;99.90
2955;DHT22;1487;51.470;6.938;2023-09-12T05:23:41;20.00;99.90
2955;DHT22;1487;51.470;6.938;2023-09-12T05:26:08;20.00;99.90
2955;DHT22;1487;51.470;6.938;2023-09-12T05:28:36;20.10;99.90
2955;DHT22;1487;51.470;6.938;2023-09-12T05:31:03;20.10;99.90
2955;DHT22;1487;51.470;6.938;2023-09-12T05:33:30;20.10;99.90
2955;DHT22;1487;51.470;6.938;2023-09-12T05:35:57;20.10;99.90
2955;DHT22;1487;51.470;6.938;2023-09-12T05:38:24;20.10;99.90
2955;DHT22;1487;51.470;6.938;2023-09-12T05:40:51;20.10;99.90
2955;DHT22;1487;51.470;6.938;2023-09-12T05:43:18;20.10;99.90
2955;DHT22;1487;51.470;6.938;2023-09-12T05:45:47;20.20;99.90
2955;DHT22;1487;51.470;6.938;2023-09-12T05:48:14;20.10;99.90
2955;DHT22;1487;51.470;6.938;2023-09-12T05:50:40;20.10;99.90
2955;DHT22;1487;51.470;6.938;2023-09-12T05:53:08;20.10;99.90
2955;DHT22;1487;51.470;6.938;2023-09-12T05:55:35;20.10;99.90
2955;DHT22;1487;51.470;6.938;2023-09-12T05:58:02;20.10;99.90
2955;DHT22;1487;51.470;6.938;2023-09-12T06:00:31;20.10;99.90
2955;DHT22;1487;51.470;6.938;2023-09-12T06:02:59;20.10;99.90
2955;DHT22;1487;51.470;6.938;2023-09-12T06:05:26;20.10;99.90
2955;DHT22;1487;51.470;6.938;2023-09-12T06:07:53;20.10;99.90
2955;DHT22;1487;51.470;6.938;2023-09-12T06:10:20;20.10;99.90
2955;DHT22;1487;51.470;6.938;2023-09-12T06:12:47;20.10;99.90
2955;DHT22;1487;51.470;6.938;2023-09-12T06:15:15;20.20;99.90
2955;DHT22;1487;51.470;6.938;2023-09-12T06:17:41;20.20;99.90
2955;DHT22;1487;51.470;6.938;2023-09-12T06:20:10;20.20;99.90
2955;DHT22;1487;51.470;6.938;2023-09-12T06:22:37;20.20;99.90
2955;DHT22;1487;51.470;6.938;2023-09-12T06:25:05;20.10;99.90
2955;DHT22;1487;51.470;6.938;2023-09-12T06:27:32;19.90;99.90
2955;DHT22;1487;51.470;6.938;2023-09-12T06:29:59;19.20;99.90
2955;DHT22;1487;51.470;6.938;2023-09-12T06:32:25;18.80;99.90
2955;DHT22;1487;51.470;6.938;2023-09-12T06:34:52;18.60;99.90
2955;DHT22;1487;51.470;6.938;2023-09-12T06:37:20;18.40;99.90
2955;DHT22;1487;51.470;6.938;2023-09-12T06:39:49;18.20;99.90
2955;DHT22;1487;51.470;6.938;2023-09-12T06:42:16;18.10;99.90
2955;DHT22;1487;51.470;6.938;2023-09-12T06:44:43;18.00;99.90
2955;DHT22;1487;51.470;6.938;2023-09-12T06:47:10;17.90;99.90
2955;DHT22;1487;51.470;6.938;2023-09-12T06:49:36;17.90;99.90
2955;DHT22;1487;51.470;6.938;2023-09-12T06:52:04;17.90;99.90
2955;DHT22;1487;51.470;6.938;2023-09-12T06:54:33;18.00;99.90
2955;DHT22;1487;51.470;6.938;2023-09-12T06:57:00;17.90;99.90
2955;DHT22;1487;51.470;6.938;2023-09-12T06:59:27;18.00;99.90
2955;DHT22;1487;51.470;6.938;2023-09-12T07:01:54;17.90;99.90
2955;DHT22;1487;51.470;6.938;2023-09-12T07:04:21;17.80;99.90
2955;DHT22;1487;51.470;6.938;2023-09-12T07:06:48;17.80;99.90
2955;DHT22;1487;51.470;6.938;2023-09-12T07:09:16;17.90;99.90
2955;DHT22;1487;51.470;6.938;2023-09-12T07:11:47;17.80;99.90
2955;DHT22;1487;51.470;6.938;2023-09-12T07:14:13;17.80;99.90
2955;DHT22;1487;51.470;6.938;2023-09-12T07:16:40;17.90;99.90
2955;DHT22;1487;51.470;6.938;2023-09-12T07:19:07;17.70;99.90
2955;DHT22;1487;51.470;6.938;2023-09-12T07:21:35;17.70;99.90
2955;DHT22;1487;51.470;6.938;2023-09-12T07:24:02;17.80;99.90
2955;DHT22;1487;51.470;6.938;2023-09-12T07:26:29;17.90;99.90
2955;DHT22;1487;51.470;6.938;2023-09-12T07:28:57;18.00;99.90
2955;DHT22;1487;51.470;6.938;2023-09-12T07:31:28;18.00;99.90
2955;DHT22;1487;51.470;6.938;2023-09-12T07:33:54;18.10;99.90
2955;DHT22;1487;51.470;6.938;2023-09-12T07:36:21;18.20;99.90
2955;DHT22;1487;51.470;6.938;2023-09-12T07:38:48;18.30;99.90
2955;DHT22;1487;51.470;6.938;2023-09-12T07:41:15;18.40;99.90
2955;DHT22;1487;51.470;6.938;2023-09-12T07:43:42;18.40;99.90
2955;DHT22;1487;51.470;6.938;2023-09-12T07:46:10;18.50;99.90
2955;DHT22;1487;51.470;6.938;2023-09-12T07:48:37;18.50;99.90
2955;DHT22;1487;51.470;6.938;2023-09-12T07:51:11;18.60;99.90
2955;DHT22;1487;51.470;6.938;2023-09-12T07:53:39;18.80;99.90
2955;DHT22;1487;51.470;6.938;2023-09-12T07:56:08;19.00;99.90
2955;DHT22;1487;51.470;6.938;2023-09-12T07:58:35;19.10;99.90
2955;DHT22;1487;51.470;6.938;2023-09-12T08:01:05;19.10;99.90
2955;DHT22;1487;51.470;6.938;2023-09-12T08:03:33;19.20;99.90
2955;DHT22;1487;51.470;6.938;2023-09-12T08:06:00;19.30;99.90
2955;DHT22;1487;51.470;6.938;2023-09-12T08:08:27;19.40;99.90
2955;DHT22;1487;51.470;6.938;2023-09-12T08:10:54;19.50;99.90
2955;DHT22;1487;51.470;6.938;2023-09-12T08:13:21;19.60;99.90
2955;DHT22;1487;51.470;6.938;2023-09-12T08:15:48;19.60;99.90
2955;DHT22;1487;51.470;6.938;2023-09-12T08:18:15;19.60;99.90
2955;DHT22;1487;51.470;6.938;2023-09-12T08:20:43;19.70;99.90
2955;DHT22;1487;51.470;6.938;2023-09-12T08:23:10;19.80;99.90
2955;DHT22;1487;51.470;6.938;2023-09-12T08:25:37;19.80;99.90
2955;DHT22;1487;51.470;6.938;2023-09-12T08:28:04;20.00;99.90
2955;DHT22;1487;51.470;6.938;2023-09-12T08:32:59;20.80;99.90
2955;DHT22;1487;51.470;6.938;2023-09-12T08:35:28;21.00;99.90
2955;DHT22;1487;51.470;6.938;2023-09-12T08:37:57;21.10;99.90
2955;DHT22;1487;51.470;6.938;2023-09-12T08:40:23;21.20;99.90
2955;DHT22;1487;51.470;6.938;2023-09-12T08:42:51;21.50;99.90
2955;DHT22;1487;51.470;6.938;2023-09-12T08:45:19;22.10;99.90
2955;DHT22;1487;51.470;6.938;2023-09-12T08:47:50;22.80;99.90
2955;DHT22;1487;51.470;6.938;2023-09-12T08:50:18;23.70;99.90
2955;DHT22;1487;51.470;6.938;2023-09-12T08:52:47;24.20;99.90
2955;DHT22;1487;51.470;6.938;2023-09-12T08:55:15;25.50;99.90
2955;DHT22;1487;51.470;6.938;2023-09-12T08:57:43;26.30;99.90
2955;DHT22;1487;51.470;6.938;2023-09-12T09:00:11;27.20;99.90
2955;DHT22;1487;51.470;6.938;2023-09-12T09:02:40;28.40;99.90
2955;DHT22;1487;51.470;6.938;2023-09-12T09:05:08;28.60;99.90
2955;DHT22;1487;51.470;6.938;2023-09-12T09:07:36;28.80;99.90
2955;DHT22;1487;51.470;6.938;2023-09-12T09:10:04;29.50;99.90
2955;DHT22;1487;51.470;6.938;2023-09-12T09:12:34;29.80;99.90
2955;DHT22;1487;51.470;6.938;2023-09-12T09:15:25;30.10;99.90
2955;DHT22;1487;51.470;6.938;2023-09-12T09:17:54;29.90;99.90
2955;DHT22;1487;51.470;6.938;2023-09-12T09:20:28;29.20;99.90
2955;DHT22;1487;51.470;6.938;2023-09-12T09:22:57;28.40;99.90
2955;DHT22;1487;51.470;6.938;2023-09-12T09:25:24;27.70;99.90
2955;DHT22;1487;51.470;6.938;2023-09-12T09:27:52;27.20;99.90
2955;DHT22;1487;51.470;6.938;2023-09-12T09:30:22;26.80;99.90
2955;DHT22;1487;51.470;6.938;2023-09-12T09:33:05;26.30;99.90
2955;DHT22;1487;51.470;6.938;2023-09-12T09:35:31;26.00;99.90
2955;DHT22;1487;51.470;6.938;2023-09-12T09:37:58;26.10;99.90
2955;DHT22;1487;51.470;6.938;2023-09-12T09:40:25;26.50;99.90
2955;DHT22;1487;51.470;6.938;2023-09-12T09:42:54;26.80;99.90
2955;DHT22;1487;51.470;6.938;2023-09-12T09:45:21;26.80;99.90
2955;DHT22;1487;51.470;6.938;2023-09-12T09:47:49;27.30;99.90
2955;DHT22;1487;51.470;6.938;2023-09-12T09:50:16;27.90;99.90
2955;DHT22;1487;51.470;6.938;2023-09-12T09:52:43;29.30;99.90
2955;DHT22;1487;51.470;6.938;2023-09-12T09:55:13;30.20;99.90
2955;DHT22;1487;51.470;6.938;2023-09-12T09:57:40;30.10;99.90
2955;DHT22;1487;51.470;6.938;2023-09-12T10:00:09;29.70;99.90
2955;DHT22;1487;51.470;6.938;2023-09-12T10:02:40;29.50;99.90
2955;DHT22;1487;51.470;6.938;2023-09-12T10:05:09;29.40;99.90
2955;DHT22;1487;51.470;6.938;2023-09-12T10:07:37;29.20;99.90
2955;DHT22;1487;51.470;6.938;2023-09-12T10:10:06;29.50;99.90
2955;DHT22;1487;51.470;6.938;2023-09-12T10:12:35;29.90;99.90
2955;DHT22;1487;51.470;6.938;2023-09-12T10:15:04;30.50;99.90
2955;DHT22;1487;51.470;6.938;2023-09-12T10:17:36;30.70;99.90
2955;DHT22;1487;51.470;6.938;2023-09-12T10:20:04;31.20;99.90
2955;DHT22;1487;51.470;6.938;2023-09-12T10:22:39;31.20;99.90
2955;DHT22;1487;51.470;6.938;2023-09-12T10:25:07;31.00;99.90
2955;DHT22;1487;51.470;6.938;2023-09-12T10:27:34;30.30;99.90
2955;DHT22;1487;51.470;6.938;2023-09-12T10:30:02;29.70;99.90
2955;DHT22;1487;51.470;6.938;2023-09-12T10:32:31;29.30;99.90
2955;DHT22;1487;51.470;6.938;2023-09-12T10:34:59;30.00;99.90
2955;DHT22;1487;51.470;6.938;2023-09-12T10:37:27;30.80;99.90
2955;DHT22;1487;51.470;6.938;2023-09-12T10:39:56;31.70;99.90
2955;DHT22;1487;51.470;6.938;2023-09-12T10:42:24;32.50;99.90
2955;DHT22;1487;51.470;6.938;2023-09-12T10:44:54;33.10;99.90
2955;DHT22;1487;51.470;6.938;2023-09-12T10:47:21;33.70;99.90
2955;DHT22;1487;51.470;6.938;2023-09-12T10:49:50;33.70;99.90
2955;DHT22;1487;51.470;6.938;2023-09-12T10:52:24;33.00;99.90
2955;DHT22;1487;51.470;6.938;2023-09-12T10:54:51;32.20;99.90
2955;DHT22;1487;51.470;6.938;2023-09-12T10:57:19;31.60;99.90
2955;DHT22;1487;51.470;6.938;2023-09-12T11:00:11;31.00;99.90
2955;DHT22;1487;51.470;6.938;2023-09-12T11:02:39;30.90;99.90
2955;DHT22;1487;51.470;6.938;2023-09-12T11:05:37;31.10;99.90
2955;DHT22;1487;51.470;6.938;2023-09-12T11:08:04;31.80;99.90
2955;DHT22;1487;51.470;6.938;2023-09-12T11:10:31;32.40;99.90
2955;DHT22;1487;51.470;6.938;2023-09-12T11:12:58;32.90;99.90
2955;DHT22;1487;51.470;6.938;2023-09-12T11:15:27;33.50;99.90
2955;DHT22;1487;51.470;6.938;2023-09-12T11:18:02;33.80;99.90
2955;DHT22;1487;51.470;6.938;2023-09-12T11:20:52;33.30;99.90
2955;DHT22;1487;51.470;6.938;2023-09-12T11:23:19;32.50;99.90
2955;DHT22;1487;51.470;6.938;2023-09-12T11:25:47;32.50;99.90
2955;DHT22;1487;51.470;6.938;2023-09-12T11:28:14;33.10;99.90
2955;DHT22;1487;51.470;6.938;2023-09-12T11:30:55;33.50;99.90
2955;DHT22;1487;51.470;6.938;2023-09-12T11:33:24;33.50;99.90
2955;DHT22;1487;51.470;6.938;2023-09-12T11:35:54;33.00;99.90
2955;DHT22;1487;51.470;6.938;2023-09-12T11:38:27;32.40;99.90
2955;DHT22;1487;51.470;6.938;2023-09-12T11:40:54;31.90;99.90
2955;DHT22;1487;51.470;6.938;2023-09-12T11:43:22;32.00;99.90
2955;DHT22;1487;51.470;6.938;2023-09-12T11:45:50;32.30;99.90
2955;DHT22;1487;51.470;6.938;2023-09-12T11:48:18;32.40;99.90
2955;DHT22;1487;51.470;6.938;2023-09-12T11:50:50;32.70;99.90
2955;DHT22;1487;51.470;6.938;2023-09-12T11:53:20;33.00;99.90
2955;DHT22;1487;51.470;6.938;2023-09-12T11:55:49;33.30;99.90
2955;DHT22;1487;51.470;6.938;2023-09-12T11:58:18;33.50;99.90
2955;DHT22;1487;51.470;6.938;2023-09-12T12:00:47;33.30;99.90
2955;DHT22;1487;51.470;6.938;2023-09-12T12:03:15;33.50;99.90
2955;DHT22;1487;51.470;6.938;2023-09-12T12:05:42;33.60;99.90
2955;DHT22;1487;51.470;6.938;2023-09-12T12:08:10;33.70;99.90
2955;DHT22;1487;51.470;6.938;2023-09-12T12:10:38;33.50;99.90
2955;DHT22;1487;51.470;6.938;2023-09-12T12:13:06;33.00;99.90
2955;DHT22;1487;51.470;6.938;2023-09-12T12:15:37;32.40;99.90
2955;DHT22;1487;51.470;6.938;2023-09-12T12:18:04;31.50;99.90
2955;DHT22;1487;51.470;6.938;2023-09-12T12:20:31;31.20;99.90
2955;DHT22;1487;51.470;6.938;2023-09-12T12:22:58;30.50;99.90
2955;DHT22;1487;51.470;6.938;2023-09-12T12:25:24;29.70;99.90
2955;DHT22;1487;51.470;6.938;2023-09-12T12:27:53;29.30;99.90
2955;DHT22;1487;51.470;6.938;2023-09-12T12:30:21;28.90;99.90
2955;DHT22;1487;51.470;6.938;2023-09-12T12:32:48;28.50;99.90
2955;DHT22;1487;51.470;6.938;2023-09-12T12:35:19;28.30;99.90
2955;DHT22;1487;51.470;6.938;2023-09-12T12:37:48;28.00;99.90
2955;DHT22;1487;51.470;6.938;2023-09-12T12:40:15;28.20;99.90
2955;DHT22;1487;51.470;6.938;2023-09-12T12:42:44;28.20;99.90
2955;DHT22;1487;51.470;6.938;2023-09-12T12:45:14;28.50;99.90
2955;DHT22;1487;51.470;6.938;2023-09-12T12:47:41;29.10;99.90
2955;DHT22;1487;51.470;6.938;2023-09-12T12:50:10;29.80;99.90
2955;DHT22;1487;51.470;6.938;2023-09-12T12:52:37;30.00;99.90
2955;DHT22;1487;51.470;6.938;2023-09-12T12:55:05;29.50;99.90
2955;DHT22;1487;51.470;6.938;2023-09-12T12:57:32;29.30;99.90
2955;DHT22;1487;51.470;6.938;2023-09-12T12:59:59;28.80;99.90
2955;DHT22;1487;51.470;6.938;2023-09-12T13:02:27;28.70;99.90
2955;DHT22;1487;51.470;6.938;2023-09-12T13:04:54;29.30;99.90
2955;DHT22;1487;51.470;6.938;2023-09-12T13:07:20;29.80;99.90
2955;DHT22;1487;51.470;6.938;2023-09-12T13:09:47;30.30;99.90
2955;DHT22;1487;51.470;6.938;2023-09-12T13:12:14;30.80;99.90
2955;DHT22;1487;51.470;6.938;2023-09-12T13:14:43;30.60;99.90
2955;DHT22;1487;51.470;6.938;2023-09-12T13:17:10;30.50;99.90
2955;DHT22;1487;51.470;6.938;2023-09-12T13:19:38;30.50;99.90
2955;DHT22;1487;51.470;6.938;2023-09-12T13:22:05;30.40;99.90
2955;DHT22;1487;51.470;6.938;2023-09-12T13:24:31;30.40;99.90
2955;DHT22;1487;51.470;6.938;2023-09-12T13:26:58;30.40;99.90
2955;DHT22;1487;51.470;6.938;2023-09-12T13:29:25;30.10;99.90
2955;DHT22;1487;51.470;6.938;2023-09-12T13:31:52;29.60;99.90
2955;DHT22;1487;51.470;6.938;2023-09-12T13:34:19;29.20;99.90
2955;DHT22;1487;51.470;6.938;2023-09-12T13:36:47;28.90;99.90
2955;DHT22;1487;51.470;6.938;2023-09-12T13:39:14;28.60;99.90
2955;DHT22;1487;51.470;6.938;2023-09-12T13:41:42;28.30;99.90
2955;DHT22;1487;51.470;6.938;2023-09-12T13:44:10;28.40;99.90
2955;DHT22;1487;51.470;6.938;2023-09-12T13:46:37;28.90;99.90
2955;DHT22;1487;51.470;6.938;2023-09-12T13:49:04;29.50;99.90
2955;DHT22;1487;51.470;6.938;2023-09-12T13:51:30;30.20;99.90
2955;DHT22;1487;51.470;6.938;2023-09-12T13:53:59;30.80;99.90
2955;DHT22;1487;51.470;6.938;2023-09-12T13:56:26;31.20;99.90
2955;DHT22;1487;51.470;6.938;2023-09-12T13:58:53;31.80;99.90
2955;DHT22;1487;51.470;6.938;2023-09-12T14:01:21;32.20;99.90
2955;DHT22;1487;51.470;6.938;2023-09-12T14:03:48;32.50;99.90
2955;DHT22;1487;51.470;6.938;2023-09-12T14:06:15;32.60;99.90
2955;DHT22;1487;51.470;6.938;2023-09-12T14:08:42;32.80;99.90
2955;DHT22;1487;51.470;6.938;2023-09-12T14:11:10;32.80;99.90
2955;DHT22;1487;51.470;6.938;2023-09-12T14:13:37;32.80;99.90
2955;DHT22;1487;51.470;6.938;2023-09-12T14:16:04;32.50;99.90
2955;DHT22;1487;51.470;6.938;2023-09-12T14:18:31;32.20;99.90
2955;DHT22;1487;51.470;6.938;2023-09-12T14:20:57;31.40;99.90
2955;DHT22;1487;51.470;6.938;2023-09-12T14:23:24;31.00;99.90
2955;DHT22;1487;51.470;6.938;2023-09-12T14:25:51;30.20;99.90
2955;DHT22;1487;51.470;6.938;2023-09-12T14:28:19;29.60;99.90
2955;DHT22;1487;51.470;6.938;2023-09-12T14:30:46;29.10;99.90
2955;DHT22;1487;51.470;6.938;2023-09-12T14:33:15;28.60;99.90
2955;DHT22;1487;51.470;6.938;2023-09-12T14:35:43;28.30;99.90
2955;DHT22;1487;51.470;6.938;2023-09-12T14:38:10;28.10;99.90
2955;DHT22;1487;51.470;6.938;2023-09-12T14:40:37;28.00;99.90
2955;DHT22;1487;51.470;6.938;2023-09-12T14:43:05;28.10;99.90
2955;DHT22;1487;51.470;6.938;2023-09-12T14:45:34;28.20;99.90
2955;DHT22;1487;51.470;6.938;2023-09-12T14:48:01;28.00;99.90
2955;DHT22;1487;51.470;6.938;2023-09-12T14:50:27;28.00;99.90
2955;DHT22;1487;51.470;6.938;2023-09-12T14:52:55;28.40;99.90
2955;DHT22;1487;51.470;6.938;2023-09-12T14:55:22;28.90;99.90
2955;DHT22;1487;51.470;6.938;2023-09-12T14:57:49;28.90;99.90
2955;DHT22;1487;51.470;6.938;2023-09-12T15:00:16;28.70;99.90
2955;DHT22;1487;51.470;6.938;2023-09-12T15:02:44;28.60;99.90
2955;DHT22;1487;51.470;6.938;2023-09-12T15:05:11;28.60;99.90
2955;DHT22;1487;51.470;6.938;2023-09-12T15:07:38;28.80;99.90
2955;DHT22;1487;51.470;6.938;2023-09-12T15:10:05;29.10;99.90
2955;DHT22;1487;51.470;6.938;2023-09-12T15:12:32;29.30;99.90
2955;DHT22;1487;51.470;6.938;2023-09-12T15:14:59;29.40;99.90
2955;DHT22;1487;51.470;6.938;2023-09-12T15:17:25;29.30;99.90
2955;DHT22;1487;51.470;6.938;2023-09-12T15:19:53;29.10;99.90
2955;DHT22;1487;51.470;6.938;2023-09-12T15:22:21;28.70;99.90
2955;DHT22;1487;51.470;6.938;2023-09-12T15:24:47;28.30;99.90
2955;DHT22;1487;51.470;6.938;2023-09-12T15:27:14;28.00;99.90
2955;DHT22;1487;51.470;6.938;2023-09-12T15:29:41;27.70;99.90
2955;DHT22;1487;51.470;6.938;2023-09-12T15:32:08;27.40;99.90
2955;DHT22;1487;51.470;6.938;2023-09-12T15:34:35;27.30;99.90
2955;DHT22;1487;51.470;6.938;2023-09-12T15:37:10;27.20;99.90
2955;DHT22;1487;51.470;6.938;2023-09-12T15:39:37;27.00;99.90
2955;DHT22;1487;51.470;6.938;2023-09-12T15:42:05;26.80;99.90
2955;DHT22;1487;51.470;6.938;2023-09-12T15:44:32;26.60;99.90
2955;DHT22;1487;51.470;6.938;2023-09-12T15:46:59;26.50;99.90
2955;DHT22;1487;51.470;6.938;2023-09-12T15:49:27;26.40;99.90
2955;DHT22;1487;51.470;6.938;2023-09-12T15:51:54;26.30;99.90
2955;DHT22;1487;51.470;6.938;2023-09-12T15:54:22;26.20;99.90
2955;DHT22;1487;51.470;6.938;2023-09-12T15:56:49;26.10;99.90
2955;DHT22;1487;51.470;6.938;2023-09-12T15:59:16;26.00;99.90
2955;DHT22;1487;51.470;6.938;2023-09-12T16:01:43;25.80;99.90
2955;DHT22;1487;51.470;6.938;2023-09-12T16:04:10;25.70;99.90
2955;DHT22;1487;51.470;6.938;2023-09-12T16:06:36;25.60;99.90
2955;DHT22;1487;51.470;6.938;2023-09-12T16:09:03;25.50;99.90
2955;DHT22;1487;51.470;6.938;2023-09-12T16:11:32;25.50;99.90